Latest Coastal Weather Observations for Mardie

IDW60701

Issued at 9:32 am WST Tuesday 4 August 2015 (issued every 10 minutes, with the page automatically refreshed every 10 minutes)

About coastal observations | Map of coastal stations | Coastal observations for WA | Marine services | Other Formats
Station Details ID: 005008 Name: MARDIE Lat: -21.19 Lon: 115.98 Height: 11.0 m
Data from the previous 72 hours. | See also: Recent months at Mardie
Date/Time
WST
Temp

°C
Wind Pressure Rain
since 9am
mm
Weather Cloud Vis
km
Sea
Height
m
Swell
Dir
 
Speed
knots
Gust
knots
hPa Trend Height
m
Period
s
Dir
04/09:30am 24.7 E 15 19 1021.3 - 0.0 - - - - - - -
04/09:00am 23.3 E 13 17 1021.2 - 0.0 - - - - - - -
04/08:30am 22.0 ESE 15 20 1021.3 - 0.0 - - - - - - -
04/08:00am 21.0 ESE 14 19 1021.1 - 0.0 - - - - - - -
04/07:30am 20.2 ESE 12 16 1020.8 - 0.0 - - - - - - -
04/07:00am 19.6 ESE 13 16 1020.5 - 0.0 - - - - - - -
04/06:30am 19.9 ESE 14 19 1020.1 - 0.0 - - - - - - -
04/06:00am 19.9 ESE 13 18 1019.9 - 0.0 - - - - - - -
04/05:30am 20.3 ESE 14 19 1019.5 - 0.0 - - - - - - -
04/05:00am 20.4 ESE 15 20 1019.3 - 0.0 - - - - - - -
04/04:30am 20.5 ESE 12 16 1019.4 - 0.0 - - - - - - -
04/04:00am 21.0 ESE 12 18 1019.5 - 0.0 - - - - - - -
04/03:30am 21.0 ESE 12 17 1019.4 - 0.0 - - - - - - -
04/03:00am 21.3 ESE 12 19 1019.3 - 0.0 - - - - - - -
04/02:30am 21.3 E 12 16 1019.4 - 0.0 - - - - - - -
04/02:00am 21.6 ESE 11 15 1019.5 - 0.0 - - - - - - -
04/01:30am 21.6 ESE 11 16 1019.5 - 0.0 - - - - - - -
04/01:00am 21.1 ESE 9 12 1019.7 - 0.0 - - - - - - -
04/12:30am 18.7 ESE 6 7 1019.8 - 0.0 - - - - - - -
04/12:00am 18.1 SSE 5 5 1019.8 - 0.0 - - - - - - -
 
Date/Time
WST
Temp

°C
Wind Pressure Rain
since 9am
mm
Weather Cloud Vis
km
Sea
Height
m
Swell
Dir
 
Speed
knots
Gust
knots
hPa Trend Height
m
Period
s
Dir
03/11:30pm 18.1 SSE 6 9 1020.0 - 0.0 - - - - - - -
03/11:00pm 17.6 ESE 5 6 1020.1 - 0.0 - - - - - - -
03/10:30pm 18.0 ESE 5 7 1020.2 - 0.0 - - - - - - -
03/10:00pm 19.0 NE 5 6 1020.1 - 0.0 - - - - - - -
03/09:30pm 18.8 NE 5 5 1020.1 - 0.0 - - - - - - -
03/09:00pm 19.6 NE 4 5 1020.2 - 0.0 - - - - - - -
03/08:30pm 20.1 NE 3 3 1020.2 - 0.0 - - - - - - -
03/08:00pm 20.4 NNE 3 5 1019.9 - 0.0 - - - - - - -
03/07:30pm 21.2 N 3 4 1019.5 - 0.0 - - - - - - -
03/07:00pm 22.1 N 4 5 1019.3 - 0.0 - - - - - - -
03/06:30pm 23.1 N 4 6 1019.0 - 0.0 - - - - - - -
03/06:00pm 24.4 N 5 9 1018.7 - 0.0 - - - - - - -
03/05:30pm 25.6 N 8 13 1018.5 - 0.0 - - - - - - -
03/05:00pm 26.5 N 8 13 1018.3 - 0.0 - - - - - - -
03/04:30pm 27.4 N 8 12 1018.2 - 0.0 - - - - - - -
03/04:00pm 28.2 N 9 13 1018.0 - 0.0 - - - - - - -
03/03:30pm 29.8 NNE 6 13 1018.1 - 0.0 - - - - - - -
03/03:00pm 30.6 ENE 11 17 1018.1 - 0.0 - - - - - - -
03/02:30pm 30.5 ENE 10 17 1018.3 - 0.0 - - - - - - -
03/02:00pm 30.4 ENE 12 17 1018.6 - 0.0 - - - - - - -
03/01:30pm 30.3 ENE 13 19 1019.0 - 0.0 - - - - - - -
03/01:00pm 29.8 ENE 12 18 1019.5 - 0.0 - - - - - - -
03/12:30pm 29.2 E 13 23 1019.9 - 0.0 - - - - - - -
03/12:00pm 28.6 ENE 14 20 1020.4 - 0.0 - - - - - - -
03/11:30am 28.0 ENE 14 18 1020.8 - 0.0 - - - - - - -
03/11:00am 27.1 E 15 20 1021.1 - 0.0 - - - - - - -
03/10:30am 26.6 E 15 20 1021.3 - 0.0 - - - - - - -
03/10:00am 25.8 E 17 22 1021.4 - 0.0 - - - - - - -
03/09:30am 24.5 E 17 22 1021.3 - 0.0 - - - - - - -
03/09:00am 23.4 E 17 22 1020.8 - 0.0 - - - - - - -
03/08:30am 22.5 E 17 23 1020.4 - 0.0 - - - - - - -
03/08:00am 21.4 E 15 19 1020.1 - 0.0 - - - - - - -
03/07:30am 20.6 E 13 19 1019.8 - 0.0 - - - - - - -
03/07:00am 19.7 ESE 11 16 1019.6 - 0.0 - - - - - - -
03/06:30am 19.0 ESE 8 10 1019.3 - 0.0 - - - - - - -
03/06:00am 19.2 ESE 9 11 1018.7 - 0.0 - - - - - - -
03/05:30am 19.4 E 9 13 1018.4 - 0.0 - - - - - - -
03/05:00am 18.5 E 7 11 1018.1 - 0.0 - - - - - - -
03/04:30am 16.3 SE 4 5 1017.8 - 0.0 - - - - - - -
03/04:00am 15.5 SE 4 5 1017.7 - 0.0 - - - - - - -
03/03:30am 15.4 SE 6 6 1017.8 - 0.0 - - - - - - -
03/03:00am 15.9 SE 4 5 1017.8 - 0.0 - - - - - - -
03/02:30am 16.4 SE 4 5 1018.0 - 0.0 - - - - - - -
03/02:00am 17.1 SE 6 8 1018.1 - 0.0 - - - - - - -
03/01:30am 16.1 ESE 5 8 1018.2 - 0.0 - - - - - - -
03/01:00am 16.7 E 4 6 1018.4 - 0.0 - - - - - - -
03/12:30am 16.5 E 5 7 1018.6 - 0.0 - - - - - - -
03/12:00am 16.6 SSE 5 6 1018.4 - 0.0 - - - - - - -
 
Date/Time
WST
Temp

°C
Wind Pressure Rain
since 9am
mm
Weather Cloud Vis
km
Sea
Height
m
Swell
Dir
 
Speed
knots
Gust
knots
hPa Trend Height
m
Period
s
Dir
02/11:30pm 16.9 SSE 4 5 1018.7 - 0.0 - - - - - - -
02/11:00pm 17.8 SSE 3 4 1019.1 - 0.0 - - - - - - -
02/10:30pm 18.0 SSE 7 9 1019.3 - 0.0 - - - - - - -
02/10:00pm 17.7 WSW 5 6 1019.3 - 0.0 - - - - - - -
02/09:30pm 18.5 WSW 3 4 1019.2 - 0.0 - - - - - - -
02/09:00pm 18.7 WSW 4 5 1019.2 - 0.0 - - - - - - -
02/08:30pm 19.1 WSW 2 3 1019.3 - 0.0 - - - - - - -
02/08:00pm 19.2 WSW 4 5 1019.2 - 0.0 - - - - - - -
02/07:30pm 20.1 WSW 3 4 1018.9 - 0.0 - - - - - - -
02/07:00pm 20.8 W 4 5 1018.6 - 0.0 - - - - - - -
02/06:30pm 21.5 W 3 4 1018.4 - 0.0 - - - - - - -
02/06:00pm 23.0 W 4 6 1018.2 - 0.0 - - - - - - -
02/05:30pm 24.3 WNW 7 9 1017.8 - 0.0 - - - - - - -
02/05:00pm 25.3 NW 8 10 1017.7 - 0.0 - - - - - - -
02/04:30pm 25.9 NW 8 10 1017.7 - 0.0 - - - - - - -
02/04:00pm 26.7 WNW 9 11 1017.5 - 0.0 - - - - - - -
02/03:30pm 26.5 NW 9 12 1017.5 - 0.0 - - - - - - -
02/03:00pm 27.3 WNW 8 13 1017.6 - 0.0 - - - - - - -
02/02:30pm 27.7 NW 8 12 1017.9 - 0.0 - - - - - - -
02/02:00pm 27.3 NW 8 12 1018.0 - 0.0 - - - - - - -
02/01:30pm 28.1 NW 9 13 1018.1 - 0.0 - - - - - - -
02/01:00pm 27.6 NW 8 13 1018.3 - 0.0 - - - - - - -
02/12:30pm 27.9 NW 7 11 1018.6 - 0.0 - - - - - - -
02/12:00pm 28.1 W 1 8 1018.8 - 0.0 - - - - - - -
02/11:30am 27.4 ESE 5 9 1019.0 - 0.0 - - - - - - -
02/11:00am 26.4 ENE 4 7 1019.6 - 0.0 - - - - - - -
02/10:30am 26.4 NNE 3 6 1019.8 - 0.0 - - - - - - -
02/10:00am 25.0 ENE 5 8 1020.0 - 0.0 - - - - - - -
02/09:30am 23.1 ESE 4 7 1019.8 - 0.0 - - - - - - -
02/09:00am 21.6 SSE 4 8 1019.6 - 0.0 - - - - - - -
02/08:30am 19.7 SSW 2 4 1019.1 - 0.0 - - - - - - -
02/08:00am 16.7 SSW 3 4 1018.9 - 0.0 - - - - - - -
02/07:30am 13.8 SSW 3 3 1018.6 - 0.0 - - - - - - -
02/07:00am 12.0 SSW 5 6 1018.4 - 0.0 - - - - - - -
02/06:30am 12.2 SSW 4 5 1018.2 - 0.0 - - - - - - -
02/06:00am 12.7 SSW 5 6 1017.9 - 0.0 - - - - - - -
02/05:30am 12.8 SSW 5 5 1017.6 - 0.0 - - - - - - -
02/05:00am 13.1 SSW 4 5 1017.5 - 0.0 - - - - - - -
02/04:30am 13.6 SSW 3 3 1017.4 - 0.0 - - - - - - -
02/04:00am 13.5 SSW 5 5 1017.4 - 0.0 - - - - - - -
02/03:30am 13.6 SSW 5 5 1017.6 - 0.0 - - - - - - -
02/03:00am 14.1 SW 3 3 1017.7 - 0.0 - - - - - - -
02/02:30am 14.4 CALM 0 0 1017.8 - 0.0 - - - - - - -
02/02:00am 14.9 CALM 0 0 1018.0 - 0.0 - - - - - - -
02/01:30am 15.4 SW 1 2 1018.2 - 0.0 - - - - - - -
02/01:00am 15.9 SW 4 5 1018.3 - 0.0 - - - - - - -
02/12:30am 16.7 SW 5 6 1018.2 - 0.0 - - - - - - -
02/12:00am 16.7 WSW 3 4 1018.3 - 0.0 - - - - - - -
 
Date/Time
WST
Temp

°C
Wind Pressure Rain
since 9am
mm
Weather Cloud Vis
km
Sea
Height
m
Swell
Dir
 
Speed
knots
Gust
knots
hPa Trend Height
m
Period
s
Dir
01/11:30pm 17.2 CALM 0 0 1018.6 - 0.0 - - - - - - -
01/11:00pm 18.0 WSW 2 3 1018.7 - 0.0 - - - - - - -
01/10:30pm 18.8 WSW 5 6 1018.6 - 0.0 - - - - - - -
01/10:00pm 19.2 WSW 5 6 1018.5 - 0.0 - - - - - - -
01/09:30pm 19.6 WSW 4 6 1018.4 - 0.0 - - - - - - -
01/09:00pm 20.1 WSW 5 7 1018.3 - 0.0 - - - - - - -
01/08:30pm 20.4 WSW 6 8 1018.2 - 0.0 - - - - - - -
01/08:00pm 20.9 WSW 6 7 1018.0 - 0.0 - - - - - - -
01/07:30pm 21.2 WSW 6 9 1017.7 - 0.0 - - - - - - -
01/07:00pm 21.6 W 6 9 1017.3 - 0.0 - - - - - - -
01/06:30pm 22.1 W 7 9 1017.0 - 0.0 - - - - - - -
01/06:00pm 22.7 W 9 12 1016.9 - 0.0 - - - - - - -
01/05:30pm 23.9 W 11 14 1016.6 - 0.0 - - - - - - -
01/05:00pm 25.4 W 11 15 1016.3 - 0.0 - - - - - - -
01/04:30pm 26.1 W 12 16 1016.2 - 0.0 - - - - - - -
01/04:00pm 27.0 W 13 17 1016.0 - 0.0 - - - - - - -
01/03:30pm 27.8 W 13 18 1016.1 - 0.0 - - - - - - -
01/03:00pm 27.9 W 13 17 1016.1 - 0.0 - - - - - - -
01/02:30pm 28.2 W 12 19 1016.3 - 0.0 - - - - - - -
01/02:00pm 28.1 SW 9 15 1016.4 - 0.0 - - - - - - -
01/01:30pm 27.6 SW 10 17 1016.5 - 0.0 - - - - - - -
01/01:00pm 27.4 SW 11 16 1016.9 - 0.0 - - - - - - -
01/12:30pm 27.1 SW 12 19 1017.3 - 0.0 - - - - - - -
01/12:00pm 26.9 SSW 12 16 1017.7 - 0.0 - - - - - - -
01/11:30am 26.0 SW 10 18 1018.2 - 0.0 - - - - - - -
01/11:00am 25.6 SSW 12 17 1018.4 - 0.0 - - - - - - -
01/10:30am 24.6 SSW 13 16 1018.8 - 0.0 - - - - - - -
01/10:00am 24.0 SSW 13 18 1018.9 - 0.0 - - - - - - -

Other Formats:

Comma delimited format used in spreadsheet applications
http://www.bom.gov.au/fwo/IDW60701/IDW60701.94306.axf

JavaScript Object Notation format (JSON) in row-major order
http://www.bom.gov.au/fwo/IDW60701/IDW60701.94306.json